WetterOnline ( http://www.wetteronline.de )

Wetter aktuell Rothaargebirge (in 800m)

Aktuelles Wetter: Kahler Asten (841m)

6-stündlich | Neueste Meldungen
Ortszeit Temperatur Wetter
Do, 15.11. 13:00 5.9° C wolkenlos
Do, 15.11. 7:00 4.5° C fast wolkenlos
Do, 15.11. 1:00 1.8° C Nebel
Mi, 14.11. 19:00 2.6° C Nebel
Mi, 14.11. 13:00 6.5° C leicht bewölkt
Mi, 14.11. 7:00 3.8° C Nebel
Mi, 14.11. 1:00 4.5° C bewölkt
Di, 13.11. 19:00 4.9° C bewölkt
Ortszeit Temperatur Wetter
Do, 15.11. 17:00 5.6° C leicht bewölkt
Do, 15.11. 16:50 5.6° C leicht bewölkt
Do, 15.11. 16:40 6.3° C wolkenlos
Do, 15.11. 16:30 8.5° C fast wolkenlos
Do, 15.11. 16:20 8.5° C fast wolkenlos
Do, 15.11. 16:10 8.4° C leicht bewölkt
Do, 15.11. 16:00 8.0° C wolkenlos
Do, 15.11. 15:30 7.5° C wolkenlos
Do, 15.11. 15:00 8.1° C wolkenlos
Do, 15.11. 14:30 8.0° C wolkenlos
Do, 15.11. 14:00 5.0° C leicht bewölkt
Ortszeit Relative Feuchte Sichtweite
Do, 15.11. 13:00 76% 35 km
Do, 15.11. 7:00 74% 70 km
Do, 15.11. 1:00 99% 0.2 km
Mi, 14.11. 19:00 99% 100 m
Mi, 14.11. 13:00 82% 40 km
Mi, 14.11. 7:00 99% 0.2 km
Mi, 14.11. 1:00 99% 2.7 km
Di, 13.11. 19:00 91% 45 km
Ortszeit Relative Feuchte Sichtweite
Do, 15.11. 17:00 40% 70 km
Do, 15.11. 16:50 40% -
Do, 15.11. 16:40 36% -
Do, 15.11. 16:30 20% 70 km
Do, 15.11. 16:20 20% -
Do, 15.11. 16:10 20% -
Do, 15.11. 16:00 27% 70 km
Do, 15.11. 15:30 41% 70 km
Do, 15.11. 15:00 37% 70 km
Do, 15.11. 14:30 43% 55 km
Do, 15.11. 14:00 76% 35 km
Ortszeit Niederschlagsmenge Niederschlagsart
Do, 15.11. 13:00 0.0 l/m2 in 6 Std. -
Do, 15.11. 7:00 0.0 l/m2 in 12 Std. -
Do, 15.11. 1:00 0.0 l/m2 in 6 Std. -
Mi, 14.11. 19:00 0.0 l/m2 in 12 Std. -
Mi, 14.11. 13:00 0.0 l/m2 in 6 Std. -
Mi, 14.11. 7:00 0.0 l/m2 in 12 Std. -
Mi, 14.11. 1:00 0.0 l/m2 in 6 Std. -
Di, 13.11. 19:00 1 l/m2 in 12 Std. Regen
Ortszeit Niederschlagsmenge Niederschlagsart
Do, 15.11. 17:00 0.0 l/m2 in 1 Std. -
Do, 15.11. 16:50 keine Meldung -
Do, 15.11. 16:40 keine Meldung -
Do, 15.11. 16:30 0.0 l/m2 in 1 Std. -
Do, 15.11. 16:20 keine Meldung -
Do, 15.11. 16:10 keine Meldung -
Do, 15.11. 16:00 0.0 l/m2 in 1 Std. -
Do, 15.11. 15:30 0.0 l/m2 in 1 Std. -
Do, 15.11. 15:00 0.0 l/m2 in 1 Std. -
Do, 15.11. 14:30 0.0 l/m2 in 1 Std. -
Do, 15.11. 14:00 0.0 l/m2 in 1 Std. -
Ortszeit Stärke Spitze Richtung
km/h Bft. km/h Grad Sektor
Do, 15.11. 13:00 11 2 25 160° S
Do, 15.11. 7:00 18 3 32 180° S
Do, 15.11. 1:00 26 4 39 170° S
Mi, 14.11. 19:00 25 4 36 170° S
Mi, 14.11. 13:00 18 3 36 190° S
Mi, 14.11. 7:00 13 3 39 240° SW
Mi, 14.11. 1:00 25 4 40 270° W
Di, 13.11. 19:00 31 5 81 260° W
Ortszeit Stärke Spitze Richtung
km/h Bft. km/h Grad Sektor
Do, 15.11. 17:00 30 5 31 170° S
Do, 15.11. 16:50 30 5 - 170° S
Do, 15.11. 16:40 26 4 - 170° S
Do, 15.11. 16:30 26 4 30 170° S
Do, 15.11. 16:20 26 4 - 170° S
Do, 15.11. 16:10 25 4 - 170° S
Do, 15.11. 16:00 25 4 29 170° S
Do, 15.11. 15:30 24 4 26 160° S
Do, 15.11. 15:00 22 4 26 170° S
Do, 15.11. 14:30 22 4 26 170° S
Do, 15.11. 14:00 18 3 22 160° S
Ortszeit Untergrenze Bedeckung Gattung
total tief tief mittel hoch
Do, 15.11. 13:00 - 0/8 0/8 - - -
Do, 15.11. 7:00 8400 m 2/8 0/8 - - -
Do, 15.11. 1:00 30 m 4/8 - - - -
Mi, 14.11. 19:00 - 8/8 - - - -
Mi, 14.11. 13:00 180 m 6/8 1/8 - - -
Mi, 14.11. 7:00 - 8/8 - - - -
Mi, 14.11. 1:00 30 m 7/8 7/8 - - -
Di, 13.11. 19:00 270 m 7/8 7/8 - - -
Ortszeit Bedeckungsgrad in Achtel und Wolkenuntergrenze
Do, 15.11. 17:00 3(8400m)
Do, 15.11. 16:50 3(8400m)
Do, 15.11. 16:40 keine Wolken
Do, 15.11. 16:30 2(9000m)
Do, 15.11. 16:20 2(9000m)
Do, 15.11. 16:10 3(9000m)
Do, 15.11. 16:00 3(9000m)
Do, 15.11. 15:30 keine Wolken
Do, 15.11. 15:00 keine Wolken
Do, 15.11. 14:30 keine Wolken
Do, 15.11. 14:00 3(8400m)
Ortszeit Stationsdruck (hPa) Tendenz (hPa in 3 Std.)
Do, 15.11. 13:00 925 - 0,1
Do, 15.11. 7:00 925 - 0,1
Do, 15.11. 1:00 926 - 0,7
Mi, 14.11. 19:00 926 - 1,4
Mi, 14.11. 13:00 928 - 0,2
Mi, 14.11. 7:00 928 - 0,4
Mi, 14.11. 1:00 928 + 0,5
Di, 13.11. 19:00 927 + 2,0
Ortszeit Stationsdruck (hPa) Tendenz (hPa in 3 Std.)
Do, 15.11. 17:00 925 - 0,4
Do, 15.11. 16:50 925 keine Meldung
Do, 15.11. 16:40 925 keine Meldung
Do, 15.11. 16:30 925 - 0,5
Do, 15.11. 16:20 925 keine Meldung
Do, 15.11. 16:10 925 keine Meldung
Do, 15.11. 16:00 925 - 0,3
Do, 15.11. 15:30 925 - 0,4
Do, 15.11. 15:00 925 - 0,4
Do, 15.11. 14:30 925 - 0,4
Do, 15.11. 14:00 925 - 0,5
Ortszeit Schneehöhe (cm)
Do, 15.11. 13:00 0
Do, 15.11. 7:00 0
Do, 15.11. 1:00 0
Mi, 14.11. 19:00 0
Mi, 14.11. 13:00 0
Mi, 14.11. 7:00 0
Mi, 14.11. 1:00 0
Di, 13.11. 19:00 0
Ortszeit Schneehöhe (cm)
Do, 15.11. 17:00 0
Do, 15.11. 16:50 0
Do, 15.11. 16:40 0
Do, 15.11. 16:30 0
Do, 15.11. 16:20 0
Do, 15.11. 16:10 0
Do, 15.11. 16:00 0
Do, 15.11. 15:30 0
Do, 15.11. 15:00 0
Do, 15.11. 14:30 0
Do, 15.11. 14:00 0
Link zu dieser Seite / Seite empfehlen

Das Wetter in ...